createdAt,value
2018-01-02T00:17:04.522Z,975.32
2018-01-02T00:18:04.739Z,975.36
2018-01-02T00:19:04.369Z,975.34
2018-01-02T00:20:04.312Z,975.42
2018-01-02T00:21:04.251Z,975.39
2018-01-02T00:25:46.915Z,975.53
2018-01-02T00:26:46.296Z,975.59
2018-01-02T00:27:46.165Z,975.61
2018-01-02T00:28:46.176Z,975.65
2018-01-02T00:29:46.381Z,975.67
2018-01-02T00:30:46.000Z,975.65
2018-01-02T00:31:45.893Z,975.76
2018-01-02T00:32:45.947Z,975.72
2018-01-02T00:33:45.836Z,975.74
2018-01-02T00:34:45.859Z,975.77
2018-01-02T00:35:45.838Z,975.82
2018-01-02T00:36:45.780Z,975.83
2018-01-02T00:37:45.747Z,975.80
2018-01-02T00:38:45.739Z,975.87
2018-01-02T00:39:45.700Z,975.91
2018-01-02T00:40:45.688Z,975.86
2018-01-02T00:41:45.675Z,975.94
2018-01-02T00:42:45.661Z,975.98
2018-01-02T00:43:45.661Z,975.96
2018-01-02T00:44:45.571Z,975.97
2018-01-02T00:45:45.601Z,976.03
2018-01-02T00:46:45.518Z,976.05
2018-01-02T00:47:45.565Z,976.06
2018-01-02T00:48:45.511Z,976.04
2018-01-02T00:49:45.480Z,976.12
2018-01-02T00:50:45.457Z,976.12
2018-01-02T00:51:45.438Z,976.16
2018-01-02T00:52:45.424Z,976.17
2018-01-02T00:53:46.214Z,976.20
2018-01-02T00:54:45.346Z,976.20
2018-01-02T00:55:45.359Z,976.22
2018-01-02T00:56:45.369Z,976.22
2018-01-02T00:57:45.327Z,976.28
2018-01-02T00:58:45.315Z,976.28
2018-01-02T00:59:45.271Z,976.32
2018-01-02T01:00:45.198Z,976.36
2018-01-02T01:01:45.216Z,976.39
2018-01-02T01:02:45.162Z,976.42
2018-01-02T01:03:45.160Z,976.42
2018-01-02T01:04:45.151Z,976.49
2018-01-02T01:05:45.154Z,976.52
2018-01-02T01:06:45.095Z,976.61
2018-01-02T01:07:45.134Z,976.61
2018-01-02T01:08:45.067Z,976.57
2018-01-02T01:09:45.094Z,976.64
2018-01-02T01:10:45.015Z,976.65
2018-01-02T01:11:44.987Z,976.65
2018-01-02T01:12:44.977Z,976.70
2018-01-02T01:13:44.944Z,976.69
2018-01-02T01:14:44.920Z,976.71
2018-01-02T01:15:44.958Z,976.77
2018-01-02T01:16:44.878Z,976.79
2018-01-02T01:17:44.871Z,976.79
2018-01-02T01:18:44.823Z,976.82
2018-01-02T01:19:44.889Z,976.88
2018-01-02T01:20:44.789Z,976.85
2018-01-02T01:21:44.822Z,976.87
2018-01-02T01:22:44.792Z,976.92
2018-01-02T01:23:44.722Z,976.89
2018-01-02T01:24:44.697Z,976.88
2018-01-02T01:25:44.697Z,976.91
2018-01-02T01:26:44.709Z,976.87
2018-01-02T01:27:44.622Z,976.85
2018-01-02T01:28:44.640Z,976.94
2018-01-02T01:29:44.585Z,976.98
2018-01-02T01:30:44.558Z,976.98
2018-01-02T01:31:44.539Z,977.02
2018-01-02T01:32:44.526Z,977.00
2018-01-02T01:33:44.506Z,977.02
2018-01-02T01:34:44.504Z,977.10
2018-01-02T01:35:44.497Z,977.08
2018-01-02T01:36:44.421Z,977.11
2018-01-02T01:37:44.397Z,977.11
2018-01-02T01:38:44.404Z,977.18
2018-01-02T01:39:44.365Z,977.19
2018-01-02T01:40:44.347Z,977.19
2018-01-02T01:41:44.311Z,977.27
2018-01-02T01:42:44.314Z,977.27
2018-01-02T01:43:44.313Z,977.33
2018-01-02T01:44:44.218Z,977.32
2018-01-02T01:45:44.221Z,977.37
2018-01-02T01:46:44.246Z,977.40
2018-01-02T01:47:44.177Z,977.39
2018-01-02T01:48:44.131Z,977.41
2018-01-02T01:49:44.161Z,977.51
2018-01-02T01:50:44.139Z,977.46
2018-01-02T01:51:44.091Z,977.47
2018-01-02T01:52:44.066Z,977.52
2018-01-02T01:53:44.068Z,977.50
2018-01-02T01:54:44.075Z,977.53
2018-01-02T01:55:44.020Z,977.58
2018-01-02T01:56:43.942Z,977.58
2018-01-02T01:57:43.992Z,977.63
2018-01-02T01:58:43.952Z,977.62
2018-01-02T01:59:43.917Z,977.63
2018-01-02T02:00:43.916Z,977.65
2018-01-02T02:01:43.905Z,977.66
2018-01-02T02:02:43.871Z,977.68
2018-01-02T02:03:43.834Z,977.63
2018-01-02T02:04:43.789Z,977.71
2018-01-02T02:05:43.785Z,977.70
2018-01-02T02:06:43.762Z,977.74
2018-01-02T02:07:43.742Z,977.72
2018-01-02T02:08:43.757Z,977.72
2018-01-02T02:09:43.731Z,977.73
2018-01-02T02:10:43.683Z,977.77
2018-01-02T02:11:43.639Z,977.78
2018-01-02T02:12:43.631Z,977.77
2018-01-02T02:13:43.588Z,977.80
2018-01-02T02:14:43.582Z,977.81
2018-01-02T02:15:43.576Z,977.83
2018-01-02T02:16:43.500Z,977.84
2018-01-02T02:17:44.354Z,977.85
2018-01-02T02:18:43.807Z,977.86
2018-01-02T02:19:43.917Z,977.89
2018-01-02T02:20:43.449Z,977.94
2018-01-02T02:21:43.425Z,977.87
2018-01-02T02:22:43.438Z,977.91
2018-01-02T02:23:43.348Z,977.98
2018-01-02T02:24:43.774Z,977.98
2018-01-02T02:25:43.670Z,977.96
2018-01-02T02:26:43.677Z,978.02
2018-01-02T02:27:43.354Z,977.98
2018-01-02T02:28:48.537Z,978.02
2018-01-02T02:29:43.579Z,977.97
2018-01-02T02:30:43.515Z,977.99
2018-01-02T02:31:43.677Z,978.06
2018-01-02T02:32:43.324Z,978.03
2018-01-02T02:33:43.381Z,978.08
2018-01-02T02:34:43.725Z,978.11
2018-01-02T02:35:43.250Z,978.09
2018-01-02T02:36:43.464Z,978.14
2018-01-02T02:37:43.297Z,978.15
2018-01-02T02:38:43.295Z,978.16
2018-01-02T02:39:44.964Z,978.20
2018-01-02T02:40:43.324Z,978.21
2018-01-02T02:41:43.399Z,978.22
2018-01-02T02:42:43.261Z,978.24
2018-01-02T02:43:43.155Z,978.24
2018-01-02T02:44:43.279Z,978.26
2018-01-02T02:45:43.079Z,978.33
2018-01-02T02:46:43.248Z,978.29
2018-01-02T02:47:43.046Z,978.34
2018-01-02T02:48:43.243Z,978.34
2018-01-02T02:49:42.985Z,978.35
2018-01-02T02:50:43.328Z,978.39
2018-01-02T02:51:43.209Z,978.35
2018-01-02T02:52:43.196Z,978.39
2018-01-02T02:53:43.076Z,978.40
2018-01-02T02:54:42.992Z,978.44
2018-01-02T02:55:43.151Z,978.45
2018-01-02T02:56:42.807Z,978.49
2018-01-02T02:57:42.742Z,978.54
2018-01-02T02:58:42.840Z,978.52
2018-01-02T02:59:42.980Z,978.58
2018-01-02T03:00:43.418Z,978.56
2018-01-02T03:01:42.698Z,978.57
2018-01-02T04:18:24.380Z,980.24
2018-01-02T04:19:23.933Z,980.26
2018-01-02T04:20:23.972Z,980.29
2018-01-02T04:21:24.681Z,980.29
2018-01-02T04:22:26.684Z,980.33
2018-01-02T04:23:24.567Z,980.33
2018-01-02T04:24:24.176Z,980.35
2018-01-02T04:25:23.574Z,980.34
2018-01-02T04:26:23.626Z,980.39
2018-01-02T04:27:23.532Z,980.37
2018-01-02T04:28:23.553Z,980.42
2018-01-02T04:29:23.561Z,980.47
2018-01-02T04:30:23.511Z,980.49
2018-01-02T04:31:23.482Z,980.50
2018-01-02T04:32:23.460Z,980.58
2018-01-02T04:33:23.382Z,980.57
2018-01-02T04:34:23.396Z,980.55
2018-01-02T04:35:23.375Z,980.59
2018-01-02T04:36:23.377Z,980.60
2018-01-02T04:37:23.306Z,980.62
2018-01-02T04:38:23.294Z,980.61
2018-01-02T04:39:23.306Z,980.61
2018-01-02T04:40:23.285Z,980.64
2018-01-02T04:41:23.310Z,980.68
2018-01-02T04:42:23.235Z,980.68
2018-01-02T04:43:23.190Z,980.71
2018-01-02T04:44:23.184Z,980.74
2018-01-02T04:45:23.194Z,980.71
2018-01-02T04:46:23.116Z,980.75
2018-01-02T04:47:23.098Z,980.82
2018-01-02T04:48:23.098Z,980.82
2018-01-02T04:49:23.075Z,980.83
2018-01-02T04:50:23.011Z,980.82
2018-01-02T04:51:22.979Z,980.83
2018-01-02T04:52:22.977Z,980.87
2018-01-02T04:53:22.920Z,980.85
2018-01-02T04:54:22.921Z,980.86
2018-01-02T04:55:22.951Z,980.90
2018-01-02T04:56:22.930Z,980.90
2018-01-02T04:57:22.924Z,980.91
2018-01-02T04:58:22.851Z,980.91
2018-01-02T04:59:22.822Z,980.98
2018-01-02T05:00:22.801Z,980.97
2018-01-02T05:01:22.766Z,980.95
2018-01-02T05:02:22.772Z,980.99
2018-01-02T05:03:22.757Z,980.99
2018-01-02T05:04:22.717Z,980.99
2018-01-02T05:05:22.707Z,981.01
2018-01-02T05:06:22.657Z,981.05
2018-01-02T05:07:22.601Z,981.06
2018-01-02T05:08:22.616Z,981.05
2018-01-02T05:09:22.571Z,981.04
2018-01-02T05:10:22.571Z,981.07
2018-01-02T05:11:22.565Z,981.09
2018-01-02T05:12:22.558Z,981.11
2018-01-02T05:13:22.477Z,981.14
2018-01-02T05:14:22.519Z,981.13
2018-01-02T05:15:23.239Z,981.21
2018-01-02T05:16:22.427Z,981.16
2018-01-02T05:17:22.441Z,981.17
2018-01-02T05:18:22.354Z,981.24
2018-01-02T05:19:22.399Z,981.25
2018-01-02T05:20:22.379Z,981.25
2018-01-02T05:21:22.283Z,981.30
2018-01-02T05:22:22.262Z,981.33
2018-01-02T05:23:22.279Z,981.33
2018-01-02T05:24:22.262Z,981.34
2018-01-02T05:25:22.221Z,981.42
2018-01-02T05:26:22.210Z,981.45
2018-01-02T05:27:22.181Z,981.47
2018-01-02T05:28:22.154Z,981.52
2018-01-02T05:29:22.162Z,981.52
2018-01-02T05:30:22.096Z,981.55
2018-01-02T05:31:22.120Z,981.56
2018-01-02T05:32:22.070Z,981.60
2018-01-02T05:33:22.003Z,981.59
2018-01-02T05:34:22.059Z,981.59
2018-01-02T05:35:21.965Z,981.62
2018-01-02T05:36:21.995Z,981.64
2018-01-02T05:37:21.961Z,981.63
2018-01-02T05:38:21.970Z,981.67
2018-01-02T05:39:21.923Z,981.66
2018-01-02T05:40:21.891Z,981.68
2018-01-02T05:41:21.840Z,981.71
2018-01-02T05:42:21.832Z,981.73
2018-01-02T05:43:21.839Z,981.73
2018-01-02T05:44:21.768Z,981.76
2018-01-02T05:45:21.777Z,981.75
2018-01-02T05:46:21.737Z,981.78
2018-01-02T05:47:21.717Z,981.77
2018-01-02T05:48:21.672Z,981.84
2018-01-02T05:49:21.685Z,981.83
2018-01-02T05:50:21.639Z,981.81
2018-01-02T05:51:21.638Z,981.81
2018-01-02T05:52:21.608Z,981.78
2018-01-02T05:53:21.554Z,981.84
2018-01-02T05:54:22.261Z,981.82
2018-01-02T05:55:21.556Z,981.82
2018-01-02T05:56:21.509Z,981.83
2018-01-02T05:57:21.505Z,981.88
2018-01-02T05:58:21.470Z,981.86
2018-01-02T05:59:21.438Z,981.93
2018-01-02T06:00:21.398Z,981.93
2018-01-02T06:01:21.378Z,981.96
2018-01-02T06:02:21.377Z,981.99
2018-01-02T06:03:21.344Z,982.04
2018-01-02T06:04:21.314Z,982.05
2018-01-02T06:05:21.290Z,982.06
2018-01-02T06:06:21.354Z,982.14
2018-01-02T06:07:21.266Z,982.13
2018-01-02T06:08:21.205Z,982.18
2018-01-02T06:09:21.188Z,982.18
2018-01-02T06:10:21.163Z,982.16
2018-01-02T06:11:21.138Z,982.19
2018-01-02T06:12:21.124Z,982.20
2018-01-02T06:13:21.113Z,982.24
2018-01-02T06:14:21.852Z,982.26
2018-01-02T06:15:21.041Z,982.30
2018-01-02T06:16:21.027Z,982.31
2018-01-02T06:17:21.049Z,982.32
2018-01-02T06:18:21.000Z,982.38
2018-01-02T06:20:55.891Z,982.41
2018-01-02T06:21:55.560Z,982.46
2018-01-02T06:22:56.232Z,982.47
2018-01-02T06:23:55.487Z,982.48
2018-01-02T06:24:55.156Z,982.50
2018-01-02T06:25:55.133Z,982.48
2018-01-02T06:26:55.136Z,982.49
2018-01-02T06:27:55.145Z,982.49
2018-01-02T06:28:55.107Z,982.53
2018-01-02T06:29:55.070Z,982.54
2018-01-02T06:30:55.019Z,982.54
2018-01-02T06:31:55.030Z,982.57
2018-01-02T06:32:54.976Z,982.62
2018-01-02T06:33:54.993Z,982.62
2018-01-02T06:34:54.962Z,982.63
2018-01-02T06:35:54.966Z,982.67
2018-01-02T06:36:54.933Z,982.66
2018-01-02T06:37:54.902Z,982.65
2018-01-02T06:38:54.880Z,982.69
2018-01-02T06:39:54.866Z,982.70
2018-01-02T06:40:54.823Z,982.77
2018-01-02T06:41:54.782Z,982.77
2018-01-02T06:42:54.768Z,982.80
2018-01-02T06:43:54.716Z,982.79
2018-01-02T06:44:54.741Z,982.81
2018-01-02T06:45:54.698Z,982.80
2018-01-02T06:46:54.658Z,982.81
2018-01-02T06:47:54.651Z,982.83
2018-01-02T06:48:54.631Z,982.83
2018-01-02T06:49:54.585Z,982.84
2018-01-02T06:50:54.579Z,982.82
2018-01-02T06:51:54.584Z,982.85
2018-01-02T06:52:54.560Z,982.88
2018-01-02T06:53:54.487Z,982.88
2018-01-02T06:54:54.473Z,982.90
2018-01-02T06:55:54.466Z,982.92
2018-01-02T06:56:54.476Z,982.94
2018-01-02T06:57:54.400Z,982.96
2018-01-02T06:58:54.371Z,983.01
2018-01-02T06:59:54.430Z,983.00
2018-01-02T07:00:54.320Z,983.02
2018-01-02T07:01:54.306Z,983.06
2018-01-02T07:02:54.296Z,983.07
2018-01-02T07:03:54.259Z,983.05
2018-01-02T07:04:54.245Z,983.11
2018-01-02T07:05:54.212Z,983.12
2018-01-02T07:06:54.188Z,983.16
2018-01-02T07:07:54.176Z,983.16
2018-01-02T07:08:54.271Z,983.19
2018-01-02T07:09:54.160Z,983.20
2018-01-02T07:10:54.227Z,983.18
2018-01-02T07:29:09.528Z,983.62
2018-01-02T07:30:00.290Z,983.61
2018-01-02T07:31:00.229Z,983.62
2018-01-02T07:31:59.717Z,983.62
2018-01-02T07:33:00.076Z,983.66
2018-01-02T07:34:00.239Z,983.69
2018-01-02T07:35:00.424Z,983.69
2018-01-02T07:35:59.639Z,983.74
2018-01-02T07:36:59.385Z,983.73
2018-01-02T07:37:59.271Z,983.71
2018-01-02T07:38:59.303Z,983.69
2018-01-02T07:39:59.115Z,983.73
2018-01-02T07:40:59.184Z,983.74
2018-01-02T07:41:59.082Z,983.75
2018-01-02T07:42:59.073Z,983.81
2018-01-02T07:43:59.013Z,983.81
2018-01-02T07:44:59.072Z,983.85
2018-01-02T08:14:46.271Z,984.32
2018-01-02T08:15:45.632Z,984.34
2018-01-02T08:16:46.261Z,984.36
2018-01-02T08:17:44.989Z,984.41
2018-01-02T08:18:45.430Z,984.37
2018-01-02T08:19:46.805Z,984.38
2018-01-02T08:22:42.514Z,984.38
2018-01-02T08:23:52.285Z,984.41
2018-01-02T08:57:31.436Z,985.22
2018-01-02T09:01:48.755Z,985.39
2018-01-02T09:17:49.653Z,985.75
2018-01-02T09:18:49.809Z,985.73
2018-01-02T09:19:58.394Z,985.77
2018-01-02T10:13:19.157Z,986.26
2018-01-02T10:14:10.842Z,986.25
2018-01-02T10:15:10.543Z,986.27
2018-01-02T10:16:10.445Z,986.21
2018-01-02T10:17:10.370Z,986.25
2018-01-02T10:18:10.440Z,986.22
2018-01-02T10:19:10.164Z,986.21
2018-01-02T10:20:10.130Z,986.21
2018-01-02T10:21:10.120Z,986.22
2018-01-02T10:22:10.200Z,986.22
2018-01-02T10:23:10.144Z,986.22
2018-01-02T10:24:10.047Z,986.24
2018-01-02T10:25:10.053Z,986.25
2018-01-02T10:26:10.078Z,986.25
2018-01-02T10:27:10.056Z,986.25
2018-01-02T10:28:09.961Z,986.27
2018-01-02T10:29:10.020Z,986.29
2018-01-02T10:30:10.865Z,986.33
2018-01-02T10:31:09.920Z,986.28
2018-01-02T10:32:09.930Z,986.30
2018-01-02T10:33:09.889Z,986.25
2018-01-02T10:34:10.610Z,986.21
2018-01-02T10:35:09.848Z,986.23
2018-01-02T10:36:09.831Z,986.24
2018-01-02T10:37:09.806Z,986.27
2018-01-02T10:38:09.964Z,986.30
2018-01-02T10:39:09.777Z,986.33
2018-01-02T10:40:09.734Z,986.33
2018-01-02T10:41:09.731Z,986.31
2018-01-02T10:42:09.714Z,986.33
2018-01-02T10:43:09.665Z,986.32
2018-01-02T10:44:09.748Z,986.36
2018-01-02T10:45:09.607Z,986.35
2018-01-02T10:46:09.592Z,986.30
2018-01-02T10:47:09.576Z,986.38
2018-01-02T10:48:09.544Z,986.36
2018-01-02T10:49:09.547Z,986.31
2018-01-02T10:50:09.512Z,986.31
2018-01-02T10:51:09.566Z,986.30
2018-01-02T10:52:09.471Z,986.35
2018-01-02T10:53:09.464Z,986.35
2018-01-02T10:54:09.420Z,986.37
2018-01-02T10:55:09.417Z,986.42
2018-01-02T10:56:09.583Z,986.41
2018-01-02T10:57:09.471Z,986.39
2018-01-02T10:58:09.379Z,986.48
2018-01-02T10:59:09.538Z,986.45
2018-01-02T11:00:09.301Z,986.45
2018-01-02T11:01:09.284Z,986.44
2018-01-02T11:02:09.259Z,986.48
2018-01-02T11:03:10.080Z,986.50
2018-01-02T11:04:09.256Z,986.55
2018-01-02T11:05:09.188Z,986.56
2018-01-02T11:06:09.216Z,986.54
2018-01-02T11:07:09.180Z,986.49
2018-01-02T11:08:09.132Z,986.46
2018-01-02T11:09:09.111Z,986.47
2018-01-02T11:10:09.092Z,986.45
2018-01-02T11:11:09.080Z,986.45
2018-01-02T11:12:09.080Z,986.43
2018-01-02T11:13:09.069Z,986.47
2018-01-02T11:14:10.636Z,986.44
2018-01-02T11:15:08.997Z,986.47
2018-01-02T11:16:08.994Z,986.49
2018-01-02T11:17:10.063Z,986.47
2018-01-02T11:18:08.962Z,986.55
2018-01-02T11:19:08.933Z,986.57
2018-01-02T11:20:08.931Z,986.60
2018-01-02T11:21:08.914Z,986.58
2018-01-02T11:22:08.853Z,986.57
2018-01-02T11:23:08.860Z,986.57
2018-01-02T11:24:08.805Z,986.57
2018-01-02T11:25:08.791Z,986.56
2018-01-02T11:26:08.770Z,986.62
2018-01-02T11:27:08.775Z,986.61
2018-01-02T11:28:08.763Z,986.63
2018-01-02T11:29:08.696Z,986.69
2018-01-02T11:30:08.688Z,986.69
2018-01-02T11:31:08.677Z,986.65
2018-01-02T11:32:08.646Z,986.65
2018-01-02T11:33:08.673Z,986.67
2018-01-02T11:34:08.687Z,986.68
2018-01-02T11:35:08.604Z,986.71
2018-01-02T11:36:08.640Z,986.73
2018-01-02T11:37:08.597Z,986.71
2018-01-02T11:38:08.659Z,986.75
2018-01-02T11:39:08.784Z,986.76
2018-01-02T11:40:08.525Z,986.79
2018-01-02T11:41:08.578Z,986.82
2018-01-02T11:42:08.475Z,986.82
2018-01-02T11:43:08.482Z,986.79
2018-01-02T11:44:08.390Z,986.74
2018-01-02T11:45:09.102Z,986.77
2018-01-02T11:46:08.340Z,986.75
2018-01-02T11:47:08.367Z,986.80
2018-01-02T11:48:08.322Z,986.75
2018-01-02T11:49:08.338Z,986.75
2018-01-02T11:50:08.290Z,986.79
2018-01-02T11:51:08.292Z,986.80
2018-01-02T11:52:08.222Z,986.79
2018-01-02T11:53:08.205Z,986.84
2018-01-02T11:54:08.224Z,986.83
2018-01-02T11:55:08.210Z,986.88
2018-01-02T11:56:08.143Z,986.89
2018-01-02T11:57:08.125Z,986.91
2018-01-02T11:58:08.094Z,986.90
2018-01-02T11:59:08.086Z,986.87
2018-01-02T12:00:08.070Z,986.88
2018-01-02T12:01:08.072Z,986.91
2018-01-02T12:02:08.025Z,986.93
2018-01-02T12:03:08.004Z,986.99
2018-01-02T12:04:08.005Z,986.98
2018-01-02T12:05:07.988Z,986.93
2018-01-02T12:06:07.913Z,986.96
2018-01-02T12:07:07.972Z,986.96
2018-01-02T12:08:07.906Z,986.97
2018-01-02T12:09:07.908Z,986.98
2018-01-02T12:10:07.866Z,986.95
2018-01-02T12:11:07.846Z,986.96
2018-01-02T12:18:37.406Z,987.07
2018-01-02T12:23:27.863Z,987.07
2018-01-02T12:24:26.810Z,987.06
2018-01-02T12:25:27.029Z,987.09
2018-01-02T12:26:26.676Z,987.08
2018-01-02T12:27:27.184Z,987.06
2018-01-02T13:38:19.594Z,987.37
2018-01-02T14:11:47.307Z,987.69
2018-01-02T14:13:01.702Z,987.66
2018-01-02T14:16:30.193Z,987.60
2018-01-02T16:26:51.761Z,987.62
2018-01-02T16:27:51.543Z,987.69
2018-01-02T16:28:52.635Z,987.77
2018-01-02T16:29:51.037Z,987.74
2018-01-02T16:30:50.668Z,987.81
2018-01-02T16:31:50.628Z,987.84
2018-01-02T16:32:51.349Z,987.90
2018-01-02T16:33:50.538Z,987.85
2018-01-02T16:34:50.445Z,987.81
2018-01-02T16:35:50.449Z,987.84
2018-01-02T16:36:50.444Z,987.83
2018-01-02T16:37:50.371Z,987.81
2018-01-02T16:38:50.364Z,987.78
2018-01-02T16:39:50.411Z,987.76
2018-01-02T16:40:50.546Z,987.74
2018-01-02T16:41:50.283Z,987.75
2018-01-02T16:42:50.390Z,987.71
2018-01-02T16:43:50.272Z,987.75
2018-01-02T16:44:51.160Z,987.78
2018-01-02T16:45:50.484Z,987.78
2018-01-02T16:52:58.573Z,987.87
2018-01-02T16:53:57.726Z,987.91
2018-01-02T16:54:58.361Z,987.94
2018-01-02T16:55:57.477Z,987.94
2018-01-02T16:56:58.384Z,987.91
2018-01-02T16:57:57.916Z,987.90
2018-01-02T16:58:57.842Z,987.94
2018-01-02T16:59:57.248Z,987.92
2018-01-02T17:00:57.206Z,987.92
2018-01-02T17:01:58.377Z,987.92
2018-01-02T17:02:57.181Z,987.93
2018-01-02T17:03:57.178Z,987.95
2018-01-02T17:04:57.356Z,987.93
2018-01-02T17:05:57.062Z,987.87
2018-01-02T17:06:57.885Z,987.92
2018-01-02T17:07:57.157Z,987.89
2018-01-02T17:08:56.724Z,987.98
2018-01-02T17:09:56.696Z,987.95
2018-01-02T17:10:56.717Z,987.94
2018-01-02T17:11:56.695Z,987.94
2018-01-02T17:12:56.647Z,987.91
2018-01-02T17:13:56.612Z,987.85
2018-01-02T17:14:56.572Z,987.83
2018-01-02T17:15:56.624Z,987.85
2018-01-02T17:16:56.535Z,987.82
2018-01-02T17:17:56.479Z,987.76
2018-01-02T17:18:56.538Z,987.73
2018-01-02T17:19:56.464Z,987.71
2018-01-02T17:20:56.450Z,987.68
2018-01-02T17:21:56.394Z,987.70
2018-01-02T17:22:57.031Z,987.67
2018-01-02T17:23:56.441Z,987.64
2018-01-02T17:24:56.356Z,987.65
2018-01-02T17:25:56.406Z,987.64
2018-01-02T17:26:56.333Z,987.58
2018-01-02T17:27:56.316Z,987.59
2018-01-02T17:28:56.257Z,987.56
2018-01-02T17:29:56.263Z,987.52
2018-01-02T17:30:56.255Z,987.52
2018-01-02T17:31:56.171Z,987.49
2018-01-02T17:32:56.154Z,987.49
2018-01-02T17:33:56.128Z,987.45
2018-01-02T17:34:56.123Z,987.46
2018-01-02T17:35:56.142Z,987.45
2018-01-02T17:36:56.132Z,987.46
2018-01-02T17:37:56.049Z,987.46
2018-01-02T17:38:56.010Z,987.47
2018-01-02T17:39:56.452Z,987.47
2018-01-02T17:42:54.054Z,987.36
2018-01-02T17:43:39.544Z,987.32
2018-01-02T17:46:11.282Z,987.24
2018-01-02T17:47:10.203Z,987.24
2018-01-02T17:48:11.270Z,987.27
2018-01-02T17:50:51.927Z,987.35
2018-01-02T17:51:52.957Z,987.36
2018-01-02T17:52:51.832Z,987.37
2018-01-02T17:53:51.940Z,987.35
2018-01-02T17:54:52.435Z,987.34
2018-01-02T17:55:52.381Z,987.35
2018-01-02T17:56:51.831Z,987.33
2018-01-02T17:57:51.504Z,987.40
2018-01-02T17:58:51.404Z,987.43
2018-01-02T17:59:51.362Z,987.40
2018-01-02T18:00:51.369Z,987.40
2018-01-02T18:01:51.312Z,987.36
2018-01-02T18:02:51.253Z,987.32
2018-01-02T18:03:51.220Z,987.34
2018-01-02T18:04:51.224Z,987.40
2018-01-02T18:05:51.167Z,987.36
2018-01-02T18:06:51.185Z,987.33
2018-01-02T18:07:51.221Z,987.25
2018-01-02T18:08:51.107Z,987.27
2018-01-02T18:09:51.522Z,987.26
2018-01-02T18:10:51.154Z,987.18
2018-01-02T18:11:51.165Z,987.07
2018-01-02T18:12:51.034Z,987.00
2018-01-02T18:13:51.417Z,986.98
2018-01-02T18:14:51.834Z,986.95
2018-01-02T18:15:52.630Z,986.93
2018-01-02T18:16:51.410Z,986.94
2018-01-02T18:17:51.285Z,986.89
2018-01-02T18:18:50.944Z,986.86
2018-01-02T18:19:57.636Z,986.80
2018-01-02T19:07:18.470Z,986.02
2018-01-02T19:08:18.509Z,986.01
2018-01-02T19:09:19.942Z,986.06
2018-01-02T19:11:57.615Z,986.05
2018-01-02T19:12:57.557Z,986.12
2018-01-02T19:13:58.475Z,986.15
2018-01-02T19:18:10.021Z,986.06
2018-01-02T19:19:07.381Z,985.98
2018-01-02T19:20:08.804Z,985.96
2018-01-02T19:23:44.869Z,985.89
2018-01-02T19:24:44.651Z,985.83
2018-01-02T19:25:44.766Z,985.79
2018-01-02T19:51:37.342Z,985.28
2018-01-02T19:52:32.780Z,985.31
2018-01-02T19:53:31.373Z,985.29
2018-01-02T19:54:33.417Z,985.27
2018-01-02T19:55:30.777Z,985.30
2018-01-02T19:56:33.370Z,985.29
2018-01-02T19:57:33.044Z,985.25
2018-01-02T19:58:31.493Z,985.23
2018-01-02T19:59:31.537Z,985.19
2018-01-02T20:00:30.847Z,985.23
2018-01-02T20:03:31.800Z,985.23
2018-01-02T20:04:32.068Z,985.21
2018-01-02T20:13:01.469Z,985.09
2018-01-02T20:13:54.452Z,985.10
2018-01-02T20:14:53.199Z,985.10
2018-01-02T20:15:49.718Z,985.07
2018-01-02T20:16:52.405Z,985.05
2018-01-02T20:17:50.650Z,985.06
2018-01-02T20:18:49.169Z,985.06
2018-01-02T20:19:49.920Z,985.00
2018-01-02T20:20:50.071Z,985.02
2018-01-02T20:21:49.583Z,985.01
2018-01-02T20:28:40.366Z,984.99
2018-01-02T20:29:33.344Z,985.00
2018-01-02T20:30:34.317Z,985.02
2018-01-02T20:31:35.903Z,985.02
2018-01-02T20:32:34.471Z,985.07
2018-01-02T20:33:33.664Z,985.06
2018-01-02T20:34:35.010Z,985.08
2018-01-02T20:35:34.386Z,985.08
2018-01-02T20:36:32.625Z,985.05
2018-01-02T20:37:32.772Z,985.08
2018-01-02T20:38:34.330Z,985.09
2018-01-02T20:39:34.399Z,985.05
2018-01-02T20:40:35.122Z,985.03
2018-01-02T20:41:38.258Z,984.99
2018-01-02T20:42:32.646Z,985.01
2018-01-02T20:43:32.936Z,985.00
2018-01-02T20:44:32.413Z,984.94
2018-01-02T20:45:32.350Z,984.95
2018-01-02T20:46:31.694Z,984.96
2018-01-02T20:47:31.571Z,984.93
2018-01-02T20:48:32.829Z,984.89
2018-01-02T20:49:32.259Z,984.89
2018-01-02T20:50:32.624Z,984.85
2018-01-02T20:51:32.414Z,984.85
2018-01-02T20:52:32.322Z,984.88
2018-01-02T20:53:35.852Z,984.86
2018-01-02T20:54:32.375Z,984.89
2018-01-02T20:55:33.742Z,984.94
2018-01-02T20:56:30.542Z,984.93
2018-01-02T20:57:33.769Z,984.89
2018-01-02T20:58:32.323Z,984.86
2018-01-02T20:59:31.547Z,984.87
2018-01-02T21:00:30.989Z,984.86
2018-01-02T21:01:32.070Z,984.79
2018-01-02T21:02:31.521Z,984.74
2018-01-02T21:03:32.350Z,984.75
2018-01-02T21:04:34.505Z,984.78
2018-01-02T21:05:34.279Z,984.72
2018-01-02T21:06:31.426Z,984.68
2018-01-02T21:07:31.219Z,984.66
2018-01-02T21:08:32.880Z,984.66
2018-01-02T21:09:34.044Z,984.58
2018-01-02T21:10:31.326Z,984.60
2018-01-02T21:11:32.876Z,984.57
2018-01-02T21:12:30.855Z,984.61
2018-01-02T21:13:30.502Z,984.54
2018-01-02T21:14:31.666Z,984.55
2018-01-02T21:15:31.699Z,984.57
2018-01-02T21:16:32.349Z,984.53
2018-01-02T21:17:30.661Z,984.48
2018-01-02T21:18:33.803Z,984.46
2018-01-02T21:19:30.871Z,984.45
2018-01-02T21:20:30.608Z,984.40
2018-01-02T21:21:30.656Z,984.40
2018-01-02T21:22:31.003Z,984.31
2018-01-02T21:23:30.567Z,984.31
2018-01-02T21:24:32.657Z,984.28
2018-01-02T21:25:31.452Z,984.23
2018-01-02T21:26:30.591Z,984.22
2018-01-02T21:27:30.788Z,984.16
2018-01-02T21:28:30.303Z,984.14
2018-01-02T21:29:31.254Z,984.07
2018-01-02T21:30:30.908Z,984.04
2018-01-02T21:31:34.618Z,984.02
2018-01-02T21:32:30.830Z,984.00
2018-01-02T21:33:30.713Z,983.93
2018-01-02T21:34:36.263Z,983.91
2018-01-02T21:37:01.519Z,983.89
2018-01-02T21:38:01.459Z,983.89
2018-01-02T21:39:01.967Z,983.89
2018-01-02T21:40:01.468Z,983.83
2018-01-02T21:41:01.287Z,983.77
2018-01-02T21:42:01.273Z,983.75
2018-01-02T21:43:01.344Z,983.70
2018-01-02T21:44:00.953Z,983.69
2018-01-02T21:45:00.872Z,983.66
2018-01-02T21:46:00.821Z,983.62
2018-01-02T21:47:00.804Z,983.60
2018-01-02T21:48:00.770Z,983.57
2018-01-02T21:49:00.745Z,983.52
2018-01-02T21:50:00.752Z,983.48
2018-01-02T21:51:00.730Z,983.47
2018-01-02T21:52:00.750Z,983.43
2018-01-02T21:53:00.673Z,983.38
2018-01-02T21:54:00.654Z,983.42
2018-01-02T21:55:00.660Z,983.41
2018-01-02T21:56:00.600Z,983.38
2018-01-02T21:57:00.624Z,983.33
2018-01-02T21:58:00.597Z,983.34
2018-01-02T21:59:00.522Z,983.33
2018-01-02T22:00:00.516Z,983.29
2018-01-02T22:01:00.466Z,983.29
2018-01-02T22:02:00.486Z,983.19
2018-01-02T22:03:00.440Z,983.20
2018-01-02T22:04:00.407Z,983.16
2018-01-02T22:05:00.429Z,983.11
2018-01-02T22:06:00.361Z,983.09
2018-01-02T22:07:00.396Z,983.08
2018-01-02T22:08:00.327Z,983.03
2018-01-02T22:09:00.314Z,983.02
2018-01-02T22:10:00.311Z,983.00
2018-01-02T22:11:00.320Z,982.96
2018-01-02T22:12:00.260Z,983.04
2018-01-02T22:13:00.248Z,982.98
2018-01-02T22:14:00.242Z,982.93
2018-01-02T22:15:00.291Z,982.88
2018-01-02T22:16:00.139Z,982.86
2018-01-02T22:17:00.115Z,982.90
2018-01-02T22:18:00.102Z,982.74
2018-01-02T22:19:00.080Z,982.74
2018-01-02T22:20:00.071Z,982.69
2018-01-02T22:21:00.060Z,982.64
2018-01-02T22:22:00.139Z,982.63
2018-01-02T22:23:00.069Z,982.54
2018-01-02T22:23:59.949Z,982.54
2018-01-02T22:24:59.933Z,982.52
2018-01-02T22:25:59.932Z,982.47
2018-01-02T22:27:00.034Z,982.41
2018-01-02T22:28:00.052Z,982.38